Time;durP1;ratioP1;P1;durP2;ratioP2;P2;SDS_P1;SDS_P2;PMS_P1;PMS_P2;Temp;Humidity;BMP_temperature;BMP_pressure;BME280_temperature;BME280_humidity;BME280_pressure;Samples;Min_cycle;Max_cycle;Signal;HPM_P1;HPM_P2
2022/04/22 00:00:18;;;;;;;34.47;19.53;;;;;;;7.39;56.82;99925.95;1453277;90;21492;-86
2022/04/22 00:02:44;;;;;;;205.83;91.83;;;;;;;7.32;56.43;99922.23;1454111;90;21434;-87
2022/04/22 00:05:11;;;;;;;82.37;40.43;;;;;;;7.22;56.39;99920.44;1448332;89;22305;-87
2022/04/22 00:07:37;;;;;;;90.03;40.20;;;;;;;7.14;56.79;99920.29;1451365;89;22227;-86
2022/04/22 00:10:06;;;;;;;41.83;21.80;;;;;;;7.08;56.26;99914.72;1453865;88;23210;-87
2022/04/22 00:12:32;;;;;;;26.23;15.87;;;;;;;6.94;56.11;99903.66;1452215;90;22332;-87
2022/04/22 00:20:25;;;;;;;21.17;14.57;;;;;;;6.93;56.27;99909.03;1291856;95;21632;-86
2022/04/22 00:22:51;;;;;;;43.90;23.23;;;;;;;6.91;58.13;99913.62;1289416;96;22320;-85
2022/04/22 00:25:17;;;;;;;82.10;39.03;;;;;;;6.89;57.51;99914.23;1289669;95;22350;-87
2022/04/22 00:27:44;;;;;;;31.67;15.37;;;;;;;6.84;57.46;99913.80;1289557;97;23204;-86
2022/04/22 00:30:12;;;;;;;37.57;21.73;;;;;;;6.76;57.77;99906.12;1291809;96;22314;-86
2022/04/22 00:32:38;;;;;;;402.17;195.03;;;;;;;6.69;57.41;99904.98;1278314;97;22319;-87
2022/04/22 00:38:44;;;;;;;338.67;154.63;;;;;;;6.58;58.07;99906.41;1287045;96;22262;-87
2022/04/22 00:41:10;;;;;;;246.33;111.67;;;;;;;6.48;58.91;99906.89;1282422;94;22167;-87
2022/04/22 00:44:19;;;;;;;85.30;42.17;;;;;;;6.40;59.05;99903.60;1299606;95;22869;-87
2022/04/22 00:46:45;;;;;;;113.77;56.03;;;;;;;6.33;59.36;99907.25;1300412;94;22881;-87
2022/04/22 00:49:11;;;;;;;149.90;71.47;;;;;;;6.25;58.57;99895.74;1299666;95;22204;-87
2022/04/22 00:51:38;;;;;;;147.57;66.90;;;;;;;6.19;58.54;99890.70;1295302;94;22512;-87
2022/04/22 00:54:05;;;;;;;157.53;77.90;;;;;;;6.12;59.22;99890.70;1289769;95;22298;-87
2022/04/22 00:56:31;;;;;;;146.60;68.50;;;;;;;6.05;59.88;99879.89;1289569;97;22139;-86
2022/04/22 00:58:59;;;;;;;101.53;52.13;;;;;;;6.05;59.74;99892.20;1289519;95;22320;-87
2022/04/22 01:01:26;;;;;;;83.57;41.63;;;;;;;5.99;60.40;99892.73;1288959;97;22957;-87
2022/04/22 01:12:08;;;;;;;63.50;32.97;;;;;;;5.80;60.96;99887.68;1289514;95;22417;-87
2022/04/22 01:14:35;;;;;;;61.00;32.67;;;;;;;5.82;62.21;99881.83;1289870;95;22064;-86
2022/04/22 01:17:02;;;;;;;56.73;29.57;;;;;;;5.82;62.21;99881.83;1289609;97;22357;-87
2022/04/22 01:19:28;;;;;;;55.97;30.23;;;;;;;5.78;62.11;99873.88;1293591;95;23215;-87
2022/04/22 01:21:55;;;;;;;54.40;29.67;;;;;;;5.81;62.31;99881.48;1294168;95;22221;-86
2022/04/22 01:24:21;;;;;;;53.73;30.27;;;;;;;5.80;61.91;99883.74;1294359;95;22804;-87
2022/04/22 01:26:49;;;;;;;40.77;24.73;;;;;;;5.69;62.15;99867.23;1294081;95;21929;-87
2022/04/22 01:29:16;;;;;;;38.40;23.83;;;;;;;5.63;62.55;99863.33;1294381;95;22236;-88
2022/04/22 01:31:44;;;;;;;34.87;21.53;;;;;;;5.63;62.55;99863.33;1294558;95;21938;-88
2022/04/22 01:34:11;;;;;;;38.73;22.03;;;;;;;5.62;63.08;99870.87;1294128;96;21902;-88
2022/04/22 01:36:37;;;;;;;33.07;19.70;;;;;;;5.42;63.54;99852.38;1294237;95;21950;-88
2022/04/22 01:39:03;;;;;;;30.30;20.53;;;;;;;5.42;63.54;99852.38;1294183;96;22793;-88
2022/04/22 01:41:29;;;;;;;36.00;20.80;;;;;;;5.32;63.32;99861.99;1294165;95;21901;-87
2022/04/22 01:43:56;;;;;;;30.53;20.47;;;;;;;5.32;63.32;99861.99;1294382;95;21807;-88
2022/04/22 01:46:22;;;;;;;27.87;17.03;;;;;;;5.13;64.52;99850.86;1294902;95;21440;-88
2022/04/22 01:48:48;;;;;;;24.80;17.20;;;;;;;5.13;64.52;99850.86;1294104;95;21894;-88
2022/04/22 01:51:14;;;;;;;26.63;18.03;;;;;;;5.11;64.37;99846.22;1293776;96;21881;-87
2022/04/22 01:53:41;;;;;;;25.67;17.80;;;;;;;5.04;64.92;99845.55;1293994;95;21522;-87
2022/04/22 01:56:07;;;;;;;25.27;17.67;;;;;;;5.04;64.92;99845.55;1294521;95;21772;-87
2022/04/22 01:58:33;;;;;;;22.70;16.60;;;;;;;5.00;65.79;99846.27;1294143;96;21683;-87
2022/04/22 02:00:59;;;;;;;38.07;18.50;;;;;;;5.00;65.79;99846.27;1294325;95;21755;-87
2022/04/22 02:03:25;;;;;;;25.03;14.57;;;;;;;4.97;65.37;99846.03;1294372;96;21403;-87
2022/04/22 02:05:51;;;;;;;22.07;13.40;;;;;;;4.97;65.70;99845.20;1294293;95;21722;-86
2022/04/22 02:08:17;;;;;;;18.13;13.70;;;;;;;4.97;65.61;99842.58;1294015;96;21892;-87
2022/04/22 02:10:44;;;;;;;25.60;14.60;;;;;;;4.96;65.57;99835.20;1294196;95;22677;-87
2022/04/22 02:13:10;;;;;;;18.13;13.87;;;;;;;4.95;65.40;99832.23;1294154;95;21724;-87
2022/04/22 02:15:36;;;;;;;23.37;15.80;;;;;;;4.93;65.67;99831.52;1294013;96;22698;-86
2022/04/22 02:18:03;;;;;;;22.40;15.63;;;;;;;4.91;65.49;99833.42;1282662;96;21811;-87
2022/04/22 02:20:29;;;;;;;24.43;15.27;;;;;;;4.90;66.78;99836.19;1294637;95;21703;-86
2022/04/22 02:22:55;;;;;;;17.77;13.57;;;;;;;4.87;65.68;99836.44;1294654;95;22810;-87
2022/04/22 02:25:21;;;;;;;17.80;13.00;;;;;;;4.82;65.93;99843.36;1294375;95;21753;-87
2022/04/22 02:30:32;;;;;;;20.10;15.70;;;;;;;4.75;65.77;99840.91;1294826;95;21626;-87
2022/04/22 02:32:58;;;;;;;24.30;15.80;;;;;;;4.71;65.87;99838.16;1294581;95;21627;-87
2022/04/22 02:35:24;;;;;;;19.60;14.40;;;;;;;4.67;66.14;99835.44;1294175;96;22677;-86
2022/04/22 02:37:52;;;;;;;22.70;16.27;;;;;;;4.66;66.10;99837.69;1294286;95;21601;-86
2022/04/22 02:45:51;;;;;;;19.67;15.37;;;;;;;4.60;67.62;99826.39;1293925;96;22581;-86
2022/04/22 02:48:18;;;;;;;19.40;14.73;;;;;;;4.62;67.64;99823.18;1294281;95;21798;-86
2022/04/22 02:50:44;;;;;;;22.80;15.17;;;;;;;4.64;67.55;99826.52;1294480;95;22617;-85
2022/04/22 02:53:10;;;;;;;24.93;15.77;;;;;;;4.68;66.87;99825.30;1293974;96;21743;-86
2022/04/22 02:55:39;;;;;;;28.33;19.57;;;;;;;4.70;66.45;99824.70;1294385;95;21596;-86
2022/04/22 02:58:07;;;;;;;23.93;16.97;;;;;;;4.70;67.13;99822.08;1294111;95;21685;-86
2022/04/22 03:00:33;;;;;;;31.27;17.50;;;;;;;4.66;67.40;99823.27;1294243;95;21769;-86
2022/04/22 03:02:59;;;;;;;25.20;17.40;;;;;;;4.63;66.75;99826.14;1282739;95;21771;-86
2022/04/22 03:05:25;;;;;;;26.67;17.00;;;;;;;4.60;66.52;99819.36;1294010;96;22583;-86
2022/04/22 03:07:52;;;;;;;23.87;16.00;;;;;;;4.60;66.80;99819.84;1294399;95;21727;-85
2022/04/22 03:10:18;;;;;;;21.70;17.43;;;;;;;4.55;67.44;99826.78;1294203;96;22675;-85
2022/04/22 03:12:44;;;;;;;21.90;15.13;;;;;;;4.48;66.98;99818.56;1294371;95;22706;-87
2022/04/22 03:15:10;;;;;;;22.93;15.87;;;;;;;4.46;67.08;99819.19;1294972;95;21597;-87
2022/04/22 03:17:36;;;;;;;20.50;15.73;;;;;;;4.41;67.97;99812.65;1294120;95;22253;-86
2022/04/22 03:20:04;;;;;;;20.87;14.77;;;;;;;4.36;67.79;99810.38;1295556;95;21702;-86
2022/04/22 03:22:30;;;;;;;21.20;15.67;;;;;;;4.33;67.58;99813.25;1294441;95;22568;-86
2022/04/22 03:24:56;;;;;;;21.70;15.40;;;;;;;4.30;68.53;99813.50;1282612;96;22644;-87
2022/04/22 03:27:22;;;;;;;25.17;16.33;;;;;;;4.28;68.33;99823.25;1294083;95;21655;-86
2022/04/22 03:29:49;;;;;;;18.97;15.47;;;;;;;4.28;68.61;99816.70;1294453;95;21507;-86
2022/04/22 03:32:15;;;;;;;21.80;15.07;;;;;;;4.29;68.57;99819.22;1294609;95;22460;-87
2022/04/22 03:34:41;;;;;;;19.07;13.70;;;;;;;4.32;68.26;99811.59;1294114;95;21728;-89
2022/04/22 03:37:07;;;;;;;30.83;17.27;;;;;;;4.36;68.37;99806.94;1294487;95;21454;-88
2022/04/22 03:39:33;;;;;;;29.27;20.37;;;;;;;4.39;68.09;99802.28;1282332;98;21643;-88
2022/04/22 03:41:59;;;;;;;34.87;23.97;;;;;;;4.41;68.42;99806.92;1282650;97;21748;-88
2022/04/22 03:44:26;;;;;;;43.63;28.23;;;;;;;4.42;67.84;99812.51;1294432;95;21763;-86
2022/04/22 03:46:52;;;;;;;45.90;31.70;;;;;;;4.40;68.44;99809.20;1293952;96;22515;-86
2022/04/22 03:49:18;;;;;;;41.23;26.73;;;;;;;4.40;68.17;99809.66;1294431;95;21728;-87
2022/04/22 03:51:44;;;;;;;56.93;34.13;;;;;;;4.39;68.55;99811.45;1269521;97;22664;-87
2022/04/22 03:54:10;;;;;;;36.97;24.93;;;;;;;4.38;68.22;99815.03;1293986;96;21658;-87
2022/04/22 03:59:21;;;;;;;42.67;22.03;;;;;;;4.37;68.65;99830.38;1294184;94;22290;-87
2022/04/22 04:01:46;;;;;;;32.53;21.90;;;;;;;4.38;68.51;99829.44;1294227;96;21687;-87
2022/04/22 04:04:12;;;;;;;44.33;24.43;;;;;;;4.40;68.59;99831.92;1294309;95;21658;-86
2022/04/22 04:06:38;;;;;;;32.87;23.00;;;;;;;4.42;69.52;99837.88;1294579;95;21388;-86
2022/04/22 04:17:18;;;;;;;79.43;48.67;;;;;;;4.51;69.84;99841.90;1293966;95;21953;-86
2022/04/22 04:25:13;;;;;;;41.60;19.63;;;;;;;4.52;70.46;99851.45;1289187;96;21657;-86
2022/04/22 04:27:39;;;;;;;34.60;18.63;;;;;;;4.40;71.41;99849.81;1289703;96;21810;-86
2022/04/22 04:30:07;;;;;;;53.70;29.40;;;;;;;4.31;69.87;99836.11;1289835;96;21711;-86
2022/04/22 04:32:34;;;;;;;38.53;24.07;;;;;;;4.28;70.29;99833.73;1289774;95;22810;-86
2022/04/22 04:35:00;;;;;;;32.87;19.90;;;;;;;4.32;69.87;99839.59;1289810;95;21887;-87
2022/04/22 04:37:26;;;;;;;39.97;26.33;;;;;;;4.34;71.16;99837.66;1289174;97;21897;-87
2022/04/22 04:39:55;;;;;;;27.73;18.23;;;;;;;4.35;70.33;99828.86;1278055;96;21694;-84
2022/04/22 04:42:21;;;;;;;35.40;21.10;;;;;;;4.35;70.66;99824.45;1288994;97;21910;-86
2022/04/22 04:44:47;;;;;;;47.03;30.00;;;;;;;4.33;70.11;99826.34;1289719;96;22450;-87
2022/04/22 04:47:13;;;;;;;42.73;26.73;;;;;;;4.39;69.68;99835.03;1278237;95;21454;-87
2022/04/22 04:49:39;;;;;;;27.27;17.90;;;;;;;4.52;69.51;99835.72;1289396;96;22463;-83
2022/04/22 04:52:06;;;;;;;30.33;16.83;;;;;;;4.67;70.25;99836.27;1289403;95;21470;-82
2022/04/22 04:54:33;;;;;;;37.33;17.80;;;;;;;4.85;70.15;99826.06;1277318;97;21439;-82
2022/04/22 04:56:59;;;;;;;35.43;23.13;;;;;;;5.01;70.29;99823.52;1289793;95;21809;-82
2022/04/22 04:59:25;;;;;;;69.53;43.47;;;;;;;5.11;69.94;99818.67;1289936;96;22766;-82
2022/04/22 05:01:51;;;;;;;57.77;36.33;;;;;;;5.23;69.45;99818.13;1290163;95;21587;-81
2022/04/22 05:04:19;;;;;;;39.10;24.60;;;;;;;5.31;69.17;99813.07;1285687;96;21968;-81
2022/04/22 05:06:45;;;;;;;36.90;20.80;;;;;;;5.40;68.91;99812.30;1284400;97;21939;-80
2022/04/22 05:09:11;;;;;;;22.93;17.97;;;;;;;5.49;68.62;99809.86;1289509;95;22955;-81
2022/04/22 05:11:37;;;;;;;37.60;18.67;;;;;;;5.56;68.15;99801.83;1277739;98;21462;-80
2022/04/22 05:14:04;;;;;;;34.73;19.00;;;;;;;5.69;68.18;99788.47;1289745;95;21577;-82
2022/04/22 05:16:30;;;;;;;38.57;17.53;;;;;;;5.76;68.72;99792.25;1288841;95;22420;-82
2022/04/22 05:18:56;;;;;;;26.77;14.90;;;;;;;5.76;68.72;99792.25;1289553;96;22214;-88
2022/04/22 05:21:22;;;;;;;25.53;17.57;;;;;;;5.77;68.59;99789.47;1288398;96;22191;-87
2022/04/22 05:23:49;;;;;;;35.90;18.80;;;;;;;5.86;68.17;99781.70;1288970;96;22460;-93
2022/04/22 05:26:15;;;;;;;34.23;19.10;;;;;;;5.97;68.21;99781.70;1298005;95;22148;-93
2022/04/22 05:28:41;;;;;;;29.53;17.60;;;;;;;6.07;68.00;99790.42;1298154;95;22235;-93
2022/04/22 05:33:57;;;;;;;43.92;18.77;;;;;;;6.32;67.25;99797.81;1284552;96;23120;-91
2022/04/22 05:36:23;;;;;;;31.53;18.50;;;;;;;6.49;67.28;99787.61;1297133;96;21417;-91
2022/04/22 05:38:52;;;;;;;32.57;16.60;;;;;;;6.64;66.87;99779.65;1297669;95;21572;-91
2022/04/22 05:41:18;;;;;;;33.43;17.60;;;;;;;6.81;66.51;99775.50;1296949;96;22446;-91
2022/04/22 05:43:44;;;;;;;33.70;17.37;;;;;;;6.98;65.93;99780.05;1273067;95;21381;-91
2022/04/22 05:46:10;;;;;;;31.60;17.67;;;;;;;7.17;65.37;99785.78;1299430;94;22306;-93
2022/04/22 05:48:45;;;;;;;19.40;14.60;;;;;;;7.36;65.04;99790.16;1288065;97;21500;-90
2022/04/22 05:51:22;;;;;;;;;;;;;;;;;;;;;
2022/04/22 05:53:54;;;;;;;19.13;14.03;;;;;;;7.65;63.25;99782.20;1298724;95;21457;-93
2022/04/22 05:56:20;;;;;;;21.97;15.10;;;;;;;7.84;62.90;99789.67;1287135;96;22514;-91
2022/04/22 05:58:46;;;;;;;17.37;12.93;;;;;;;8.00;62.60;99788.56;1298935;95;21404;-93
2022/04/22 06:01:12;;;;;;;22.73;13.00;;;;;;;8.14;61.95;99792.48;1298625;95;21382;-92
2022/04/22 06:03:38;;;;;;;22.30;12.30;;;;;;;8.29;61.59;99788.89;1302993;95;21419;-93
2022/04/22 06:06:04;;;;;;;21.30;12.23;;;;;;;8.43;61.51;99774.37;1290277;95;21411;-90
2022/04/22 06:11:15;;;;;;;22.47;12.57;;;;;;;8.78;61.15;99788.90;1289018;97;21641;-92
2022/04/22 06:13:42;;;;;;;20.13;11.87;;;;;;;9.00;60.98;99784.11;1302721;94;21455;-90
2022/04/22 06:16:08;;;;;;;20.33;12.87;;;;;;;9.16;60.79;99772.37;1286037;97;21463;-91
2022/04/22 06:18:34;;;;;;;17.00;12.60;;;;;;;9.33;60.37;99769.34;1302995;94;21449;-90
2022/04/22 06:21:00;;;;;;;20.90;11.23;;;;;;;9.48;60.20;99773.06;1303144;94;22312;-93
2022/04/22 06:23:26;;;;;;;23.00;13.77;;;;;;;9.60;59.68;99763.05;1304267;94;21373;-92
2022/04/22 06:25:53;;;;;;;25.90;15.23;;;;;;;9.73;59.23;99763.95;1309365;94;21418;-93
2022/04/22 06:28:19;;;;;;;17.73;13.47;;;;;;;9.85;59.10;99757.39;1303228;94;22483;-92
2022/04/22 06:30:46;;;;;;;17.63;11.57;;;;;;;9.97;58.86;99757.11;1302629;94;21374;-87
2022/04/22 06:33:13;;;;;;;15.77;12.10;;;;;;;10.07;58.15;99764.39;1303579;95;21418;-93
2022/04/22 06:35:40;;;;;;;16.43;12.60;;;;;;;10.18;58.22;99760.13;1287861;96;21456;-93
2022/04/22 06:38:08;;;;;;;20.07;11.83;;;;;;;10.30;57.56;99757.57;1304037;94;21638;-92
2022/04/22 06:46:04;;;;;;;13.70;10.97;;;;;;;10.54;56.48;99766.03;1303615;95;21403;-92
2022/04/22 06:48:33;;;;;;;15.53;11.30;;;;;;;10.61;56.04;99766.20;1304264;94;21411;-94
2022/04/22 06:51:01;;;;;;;11.20;9.77;;;;;;;10.72;56.05;99761.91;1304668;94;21426;-91
2022/04/22 06:53:28;;;;;;;14.10;10.63;;;;;;;10.78;55.30;99751.16;1302588;94;21500;-87
2022/04/22 06:56:00;;;;;;;18.97;10.23;;;;;;;10.87;54.72;99761.25;1300721;94;21566;-86
2022/04/22 06:58:26;;;;;;;19.13;11.63;;;;;;;10.92;54.64;99774.33;1300178;94;22932;-86
2022/04/22 07:00:53;;;;;;;14.90;9.37;;;;;;;10.95;53.91;99778.47;1284558;96;21455;-86
2022/04/22 07:03:19;;;;;;;15.37;9.90;;;;;;;11.02;54.22;99781.62;1300087;95;21530;-84
2022/04/22 07:05:48;;;;;;;13.60;9.90;;;;;;;11.10;53.85;99783.41;1300179;94;21389;-85
2022/04/22 07:08:14;;;;;;;17.50;9.73;;;;;;;11.16;53.08;99782.74;1274526;98;22340;-86
2022/04/22 07:10:42;;;;;;;11.97;9.70;;;;;;;11.25;52.70;99784.91;1304760;94;21403;-86
2022/04/22 07:13:10;;;;;;;12.73;9.83;;;;;;;11.34;52.54;99789.70;1304970;94;21455;-88
2022/04/22 07:15:40;;;;;;;14.77;9.93;;;;;;;11.41;52.17;99801.27;1274285;98;21418;-85
2022/04/22 07:18:08;;;;;;;14.65;9.95;;;;;;;11.52;51.67;99800.42;1267811;97;21506;-87
2022/04/22 07:20:35;;;;;;;12.20;9.23;;;;;;;11.60;51.52;99808.86;1299252;96;21417;-86
2022/04/22 07:23:02;;;;;;;12.17;8.43;;;;;;;11.65;51.18;99799.91;1269456;97;22460;-85
2022/04/22 07:25:29;;;;;;;13.90;10.30;;;;;;;11.67;50.19;99801.86;1268996;97;21707;-85
2022/04/22 07:27:56;;;;;;;12.10;9.73;;;;;;;11.75;51.34;99804.50;1298851;94;21440;-85
2022/04/22 07:30:24;;;;;;;12.10;8.73;;;;;;;11.86;50.96;99813.13;1299092;94;21641;-85
2022/04/22 07:32:50;;;;;;;12.17;9.00;;;;;;;11.91;50.50;99814.27;1298859;96;21570;-86
2022/04/22 07:35:20;;;;;;;10.53;8.33;;;;;;;11.98;50.74;99810.42;1299258;95;21497;-86
2022/04/22 07:37:50;;;;;;;12.03;8.50;;;;;;;12.08;50.41;99812.36;1269262;98;21618;-86
2022/04/22 07:40:19;;;;;;;17.25;9.45;;;;;;;12.18;50.15;99818.80;1267647;98;21663;-86
2022/04/22 07:48:21;;;;;;;12.10;9.30;;;;;;;12.54;48.99;99811.13;1267849;97;22432;-85
2022/04/22 07:50:48;;;;;;;15.60;9.63;;;;;;;12.68;49.18;99812.20;1299050;94;21574;-86
2022/04/22 07:53:18;;;;;;;18.70;12.83;;;;;;;12.80;48.98;99809.49;1298800;94;21479;-86
2022/04/22 07:55:46;;;;;;;10.30;8.13;;;;;;;12.88;49.04;99802.77;1299602;94;21441;-86
2022/04/22 07:58:13;;;;;;;15.07;8.40;;;;;;;13.01;48.74;99798.20;1299297;96;21424;-86
2022/04/22 08:00:48;;;;;;;23.50;14.17;;;;;;;13.15;47.65;99786.45;1269464;97;21454;-86
2022/04/22 08:03:15;;;;;;;14.93;9.83;;;;;;;13.25;47.45;99777.73;1261862;97;22485;-86
2022/04/22 08:05:42;;;;;;;14.30;9.13;;;;;;;13.41;47.99;99768.31;1299150;94;21448;-86
2022/04/22 08:08:08;;;;;;;19.60;8.27;;;;;;;13.55;46.61;99761.33;1299093;94;22372;-86
2022/04/22 08:10:34;;;;;;;16.27;8.57;;;;;;;13.70;46.83;99758.69;1299360;96;21425;-86
2022/04/22 08:13:01;;;;;;;12.00;8.67;;;;;;;13.83;46.13;99772.14;1299165;94;21411;-87
2022/04/22 08:15:28;;;;;;;10.00;8.30;;;;;;;14.00;46.11;99768.27;1299030;94;21389;-86
2022/04/22 08:17:55;;;;;;;12.47;8.20;;;;;;;14.17;45.45;99763.56;1298978;96;21411;-85
2022/04/22 08:20:21;;;;;;;18.93;9.07;;;;;;;14.29;44.46;99762.57;1265859;98;22594;-87
2022/04/22 08:22:47;;;;;;;12.60;8.47;;;;;;;14.36;43.34;99760.83;1261856;98;21595;-87
2022/04/22 08:25:13;;;;;;;15.23;8.47;;;;;;;14.42;42.57;99762.73;1287742;95;22491;-87
2022/04/22 08:27:45;;;;;;;21.43;10.00;;;;;;;14.49;43.39;99764.63;1269310;98;21448;-87
2022/04/22 08:30:11;;;;;;;11.70;8.57;;;;;;;14.53;42.30;99755.27;1262082;100;21506;-87
2022/04/22 08:32:37;;;;;;;16.20;9.10;;;;;;;14.58;42.52;99752.87;1299124;96;21479;-86
2022/04/22 08:35:05;;;;;;;16.13;7.53;;;;;;;14.64;42.36;99755.62;1299162;96;21433;-87
2022/04/22 08:37:31;;;;;;;9.97;7.47;;;;;;;14.70;40.40;99752.67;1299137;96;21500;-87
2022/04/22 08:39:58;;;;;;;11.60;7.73;;;;;;;14.75;41.21;99750.27;1269255;98;21425;-87
2022/04/22 08:42:26;;;;;;;11.30;7.10;;;;;;;14.81;41.53;99748.16;1267993;98;21573;-89
2022/04/22 08:44:53;;;;;;;11.13;7.50;;;;;;;14.84;41.14;99746.45;1299142;96;21396;-86
2022/04/22 08:50:13;;;;;;;11.50;7.67;;;;;;;14.98;40.52;99738.58;1269024;98;22268;-87
2022/04/22 08:52:36;;;;;;;14.18;7.37;;;;;;;15.04;40.42;99731.13;1277232;97;21423;-89
2022/04/22 08:55:07;;;;;;;11.27;7.60;;;;;;;15.12;39.34;99728.33;1291110;95;21468;-87
2022/04/22 08:57:34;;;;;;;10.63;7.60;;;;;;;15.22;39.86;99724.83;1291087;95;23056;-90
2022/04/22 09:00:07;;;;;;;8.20;7.37;;;;;;;15.35;39.97;99724.89;1295525;96;23216;-88
2022/04/22 09:02:34;;;;;;;9.17;6.87;;;;;;;15.48;39.44;99722.02;1295286;96;23036;-86
2022/04/22 09:05:00;;;;;;;15.80;11.30;;;;;;;15.52;38.46;99715.25;1295161;96;21363;-87
2022/04/22 09:07:29;;;;;;;15.30;11.33;;;;;;;15.61;39.68;99704.73;1295712;96;21356;-86
2022/04/22 09:09:55;;;;;;;10.23;7.40;;;;;;;15.74;38.82;99692.83;1295008;95;21445;-88
2022/04/22 09:12:24;;;;;;;10.77;7.07;;;;;;;15.89;39.27;99697.20;1295474;96;21520;-86
2022/04/22 09:14:53;;;;;;;8.57;7.20;;;;;;;15.99;38.73;99688.28;1295377;96;22554;-86
2022/04/22 09:17:28;;;;;;;11.93;8.40;;;;;;;16.04;37.90;99687.70;1297258;96;21467;-87
2022/04/22 09:19:57;;;;;;;11.90;7.17;;;;;;;16.07;38.21;99689.44;1296071;96;21401;-87
2022/04/22 09:22:25;;;;;;;12.03;8.00;;;;;;;16.06;36.83;99687.81;1296269;96;21452;-87
2022/04/22 09:24:56;;;;;;;40.33;8.93;;;;;;;15.96;37.23;99682.83;1297026;95;21528;-87
2022/04/22 09:27:44;;;;;;;14.80;7.13;;;;;;;15.97;38.18;99670.34;1294288;95;21637;-87
2022/04/22 09:30:12;;;;;;;9.67;8.47;;;;;;;15.97;38.28;99669.82;1288359;96;21579;-87
2022/04/22 09:32:43;;;;;;;16.77;10.73;;;;;;;15.91;37.99;99664.44;1285164;98;21446;-88
2022/04/22 09:35:20;;;;;;;11.17;6.87;;;;;;;15.99;38.50;99668.27;1287875;96;22525;-95
2022/04/22 09:43:42;;;;;;;7.23;5.90;;;;;;;15.82;36.72;99658.98;1283991;96;21476;-94
2022/04/22 09:46:41;;;;;;;;;;;;;;;;;;;;;
2022/04/22 09:48:58;;;;;;;7.83;6.63;;;;;;;15.48;37.47;99658.83;1288826;95;21610;-96
2022/04/22 09:51:32;;;;;;;26.87;12.63;;;;;;;15.41;38.39;99653.15;1291276;97;21394;-96
2022/04/22 09:54:08;;;;;;;16.57;7.67;;;;;;;15.38;38.99;99654.88;1290167;96;21572;-96
2022/04/22 09:56:41;;;;;;;9.53;7.60;;;;;;;15.29;39.25;99649.70;1295928;96;22650;-94
2022/04/22 09:59:28;;;;;;;18.17;11.03;;;;;;;15.26;38.35;99645.28;1321325;93;21409;-95
2022/04/22 10:02:00;;;;;;;11.17;7.80;;;;;;;15.11;39.29;99644.08;1340017;91;22443;-95
2022/04/22 10:04:35;;;;;;;11.67;7.63;;;;;;;15.09;39.15;99644.77;1354289;91;21554;-96
2022/04/22 10:07:09;;;;;;;8.97;7.00;;;;;;;15.06;39.33;99639.84;1369224;90;21491;-93
2022/04/22 10:09:40;;;;;;;6.80;6.05;;;;;;;15.07;38.93;99645.47;1356074;92;22224;-95
2022/04/22 10:12:12;;;;;;;9.07;7.20;;;;;;;15.04;39.15;99641.35;1358991;89;21371;-96
2022/04/22 10:14:45;;;;;;;25.12;8.93;;;;;;;15.06;39.55;99641.17;1369543;90;21491;-96
2022/04/22 10:17:13;;;;;;;11.57;7.53;;;;;;;14.99;40.06;99635.81;1367743;90;22356;-95
2022/04/22 10:19:43;;;;;;;13.13;7.27;;;;;;;15.10;39.57;99635.75;1358952;91;22258;-95
2022/04/22 10:22:12;;;;;;;8.00;7.20;;;;;;;15.19;39.79;99641.74;1342861;92;21541;-95
2022/04/22 10:24:44;;;;;;;35.97;9.13;;;;;;;15.18;39.62;99640.92;1340932;91;21559;-95
2022/04/22 10:27:12;;;;;;;18.63;9.53;;;;;;;15.16;39.44;99642.14;1342235;93;22535;-95
2022/04/22 10:29:43;;;;;;;18.07;8.57;;;;;;;15.21;39.46;99641.86;1327354;94;21527;-96
2022/04/22 10:32:16;;;;;;;9.83;8.23;;;;;;;15.25;40.14;99639.13;1309111;95;21453;-95
2022/04/22 10:34:52;;;;;;;11.20;7.80;;;;;;;15.28;39.72;99638.73;1326972;94;21319;-93
2022/04/22 10:37:37;;;;;;;13.03;8.33;;;;;;;15.32;39.60;99649.30;1327453;94;22412;-93
2022/04/22 10:40:09;;;;;;;15.37;8.47;;;;;;;15.24;39.27;99640.13;1340532;93;22368;-94
2022/04/22 10:42:41;;;;;;;18.17;9.00;;;;;;;15.20;39.23;99642.89;1323041;93;21378;-93
2022/04/22 10:47:58;;;;;;;32.48;9.28;;;;;;;15.02;40.24;99633.27;1338909;93;21342;-93
2022/04/22 10:50:33;;;;;;;16.97;7.77;;;;;;;14.95;39.16;99637.72;1338811;92;21318;-94
2022/04/22 10:53:12;;;;;;;25.60;9.57;;;;;;;14.89;40.07;99630.81;1341183;91;21853;-94
2022/04/22 11:04:47;;;;;;;10.17;8.20;;;;;;;14.38;40.92;99631.00;1314020;95;21394;-95
2022/04/22 11:07:21;;;;;;;12.00;8.37;;;;;;;14.25;40.94;99628.23;1314770;94;21291;-96
2022/04/22 11:09:50;;;;;;;12.77;10.17;;;;;;;14.15;41.35;99628.53;1293334;95;22340;-96
2022/04/22 11:12:54;;;;;;;11.80;8.83;;;;;;;14.09;41.74;99626.64;1315785;95;21460;-96
2022/04/22 11:15:47;;;;;;;14.30;9.30;;;;;;;14.07;41.91;99622.52;1314524;95;21328;-96
2022/04/22 11:18:17;;;;;;;12.77;7.87;;;;;;;14.06;42.28;99623.54;1313749;97;22195;-95
2022/04/22 11:20:48;;;;;;;15.67;8.57;;;;;;;14.00;42.28;99617.95;1302369;95;21357;-94
2022/04/22 11:23:16;;;;;;;16.32;8.33;;;;;;;13.98;42.23;99616.02;1314172;95;21385;-96
2022/04/22 11:25:51;;;;;;;17.73;10.87;;;;;;;13.93;41.58;99610.44;1315129;94;21371;-96
2022/04/22 11:28:19;;;;;;;18.20;11.97;;;;;;;13.94;42.27;99604.09;1314739;94;21367;-96
2022/04/22 11:30:45;;;;;;;16.33;8.80;;;;;;;13.91;42.04;99607.13;1321274;89;21690;-93
2022/04/22 11:36:06;;;;;;;12.77;9.23;;;;;;;13.84;42.38;99607.58;1321722;93;21623;-91
2022/04/22 11:38:33;;;;;;;13.20;8.40;;;;;;;13.83;41.71;99595.27;1316490;94;21320;-89
2022/04/22 11:41:11;;;;;;;16.07;8.73;;;;;;;13.79;41.68;99588.70;1305039;95;21342;-96
2022/04/22 11:43:44;;;;;;;14.23;8.77;;;;;;;13.79;42.44;99587.37;1319800;94;21313;-96
2022/04/22 11:54:36;;;;;;;9.60;8.23;;;;;;;13.86;43.83;99557.66;1374533;88;21727;31
2022/04/22 11:57:04;;;;;;;15.37;9.43;;;;;;;13.87;44.46;99552.67;1325243;93;22161;-93
2022/04/22 12:19:09;;;;;;;15.60;10.80;;;;;;;13.18;51.43;99557.11;1343761;90;21598;-95
2022/04/22 12:21:36;;;;;;;17.30;11.80;;;;;;;13.07;51.37;99557.06;1335000;91;21691;-95
2022/04/22 12:24:14;;;;;;;18.83;12.30;;;;;;;13.02;51.13;99554.13;1333495;90;23870;31
2022/04/22 12:26:51;;;;;;;21.70;13.53;;;;;;;12.99;52.84;99548.38;1320432;91;22557;31
2022/04/22 12:29:22;;;;;;;31.83;23.00;;;;;;;12.94;53.68;99540.95;1314753;92;22327;31
2022/04/22 12:34:39;;;;;;;26.25;15.28;;;;;;;12.85;54.41;99532.25;1327071;89;21800;-93
2022/04/22 12:37:13;;;;;;;26.27;15.47;;;;;;;12.80;54.35;99540.45;1340093;91;23223;31
2022/04/22 12:42:25;;;;;;;19.93;14.07;;;;;;;12.75;55.76;99533.56;1366817;84;22902;31
2022/04/22 12:58:53;;;;;;;25.20;18.70;;;;;;;12.68;60.06;99532.63;1332373;88;21719;-95
2022/04/22 13:01:32;;;;;;;26.43;17.60;;;;;;;12.69;58.97;99535.12;1329858;91;21560;-94
2022/04/22 13:04:00;;;;;;;20.75;16.73;;;;;;;12.76;58.13;99528.56;1342917;91;21435;-95
2022/04/22 13:06:43;;;;;;;20.87;18.23;;;;;;;12.85;59.63;99527.45;1341278;93;21310;-93
2022/04/22 13:09:18;;;;;;;25.67;19.93;;;;;;;12.91;59.09;99515.27;1341450;94;21171;-95
2022/04/22 13:14:25;;;;;;;20.47;13.57;;;;;;;13.07;60.25;99510.58;1356920;89;21661;31
2022/04/22 13:22:19;;;;;;;13.70;12.00;;;;;;;13.30;57.83;99501.68;1329379;90;21643;-94
2022/04/22 13:25:01;;;;;;;;;;;;;;;;;;;;;
2022/04/22 13:27:20;;;;;;;16.47;14.07;;;;;;;13.30;57.64;99493.70;1382234;88;25047;-96
2022/04/22 13:29:53;;;;;;;15.47;11.93;;;;;;;13.27;57.56;99478.14;1389005;86;21826;31
2022/04/22 13:37:44;;;;;;;12.37;10.87;;;;;;;13.18;57.95;99465.95;1413979;85;22690;-94
2022/04/22 13:40:16;;;;;;;19.30;12.67;;;;;;;13.17;57.99;99465.11;1380439;86;21691;-94
2022/04/22 13:42:46;;;;;;;17.73;12.63;;;;;;;13.18;58.37;99465.95;1425985;85;22186;-96
2022/04/22 13:56:19;;;;;;;14.37;11.33;;;;;;;13.30;57.69;99453.84;1422283;84;22250;-93
2022/04/22 13:59:03;;;;;;;14.90;10.65;;;;;;;13.26;57.60;99449.91;1398892;86;21641;31
2022/04/22 14:04:13;;;;;;;20.33;11.83;;;;;;;13.33;57.32;99442.84;1428130;85;21455;31
2022/04/22 14:06:42;;;;;;;16.53;10.73;;;;;;;13.33;57.27;99445.49;1402661;86;21843;-92
2022/04/22 14:09:14;;;;;;;17.27;12.83;;;;;;;13.33;57.08;99437.52;1403730;88;22168;-92
2022/04/22 14:11:42;;;;;;;14.17;11.63;;;;;;;13.31;56.93;99431.56;1413705;88;22710;-94